Time;durP1;ratioP1;P1;durP2;ratioP2;P2;SDS_P1;SDS_P2;PMS_P1;PMS_P2;Temp;Humidity;BMP_temperature;BMP_pressure;BME280_temperature;BME280_humidity;BME280_pressure;Samples;Min_cycle;Max_cycle;Signal;HPM_P1;HPM_P2
2023/02/25 00:01:19;;;;;;;28.02;7.88;;;;;;;12.76;76.40;96639.88;5120118;27;20721;-79
2023/02/25 00:03:45;;;;;;;25.35;7.18;;;;;;;12.85;75.72;96657.88;5124401;27;20130;-78
2023/02/25 00:06:15;;;;;;;19.83;6.85;;;;;;;12.79;75.81;96640.47;5110491;27;20031;-79
2023/02/25 00:08:44;;;;;;;17.80;7.00;;;;;;;12.85;75.93;96660.56;5148597;27;20084;-79
2023/02/25 00:11:10;;;;;;;17.25;6.88;;;;;;;12.75;76.29;96616.69;5096668;28;20092;-79
2023/02/25 00:13:39;;;;;;;14.20;6.80;;;;;;;12.81;76.91;96632.28;5093178;28;20023;-78
2023/02/25 00:16:06;;;;;;;16.90;7.03;;;;;;;12.77;76.89;96633.50;5093003;28;20096;-77
2023/02/25 00:18:31;;;;;;;18.20;7.25;;;;;;;12.64;77.39;96617.63;5095986;27;20028;-80
2023/02/25 00:20:58;;;;;;;14.20;6.22;;;;;;;12.66;77.27;96629.06;5148137;27;20541;-79
2023/02/25 00:23:23;;;;;;;13.23;6.90;;;;;;;12.78;76.90;96632.53;5128849;27;20027;-79
2023/02/25 00:25:49;;;;;;;17.08;7.20;;;;;;;12.74;76.48;96618.53;5094764;28;20628;-78
2023/02/25 00:28:14;;;;;;;20.20;6.68;;;;;;;12.73;76.37;96624.88;5109664;28;20379;-80
2023/02/25 00:30:41;;;;;;;14.23;6.88;;;;;;;12.84;75.30;96614.06;5103810;28;20102;-78
2023/02/25 00:33:08;;;;;;;16.83;7.00;;;;;;;12.88;75.68;96625.41;5096324;28;20501;-79
2023/02/25 00:35:33;;;;;;;22.80;6.95;;;;;;;12.85;75.10;96609.56;5095709;28;20106;-80
2023/02/25 00:37:59;;;;;;;16.98;7.18;;;;;;;12.83;75.16;96612.38;5147810;27;20062;-79
2023/02/25 00:40:25;;;;;;;19.73;7.47;;;;;;;12.87;75.07;96624.53;5113156;28;20458;-79
2023/02/25 00:42:50;;;;;;;19.67;6.53;;;;;;;12.98;73.65;96611.03;5113629;28;20035;-79
2023/02/25 00:45:16;;;;;;;21.23;5.85;;;;;;;13.00;74.66;96613.59;5130142;27;20126;-80
2023/02/25 00:47:42;;;;;;;21.60;7.88;;;;;;;12.91;75.08;96604.53;5108576;28;20063;-79
2023/02/25 00:50:08;;;;;;;25.45;6.95;;;;;;;12.88;75.90;96611.97;5109812;28;20023;-79
2023/02/25 00:52:36;;;;;;;17.45;7.40;;;;;;;12.70;76.42;96600.16;5092814;28;20111;-78
2023/02/25 00:55:03;;;;;;;15.57;6.70;;;;;;;12.65;76.07;96586.25;5117406;28;20023;-79
2023/02/25 00:57:28;;;;;;;11.45;5.72;;;;;;;12.82;74.00;96608.00;5112934;28;20019;-79
2023/02/25 00:59:53;;;;;;;19.50;6.43;;;;;;;12.86;73.17;96589.78;5133005;27;20039;-79
2023/02/25 01:02:19;;;;;;;23.02;6.43;;;;;;;12.90;71.50;96580.47;5111126;28;20032;-78
2023/02/25 01:04:44;;;;;;;26.85;6.78;;;;;;;13.02;70.30;96571.34;5130566;28;20455;-79
2023/02/25 01:07:10;;;;;;;18.60;6.32;;;;;;;12.93;71.70;96564.09;5140441;27;20084;-80
2023/02/25 01:09:36;;;;;;;16.30;6.72;;;;;;;12.77;72.00;96558.38;5094320;28;20027;-79
2023/02/25 01:12:01;;;;;;;29.27;6.72;;;;;;;12.83;70.58;96560.53;5141983;27;20032;-79
2023/02/25 01:14:27;;;;;;;19.33;6.03;;;;;;;12.85;69.96;96537.09;5109397;28;20034;-79
2023/02/25 01:16:55;;;;;;;19.20;5.80;;;;;;;12.85;70.09;96553.19;5092594;28;20031;-79
2023/02/25 01:19:23;;;;;;;19.45;6.95;;;;;;;12.77;70.66;96536.91;5092732;28;20179;-79
2023/02/25 01:21:51;;;;;;;25.42;6.18;;;;;;;12.78;69.93;96519.81;5079166;28;20495;-80
2023/02/25 01:24:23;;;;;;;16.73;6.53;;;;;;;12.70;72.56;96543.81;5072412;28;20028;-79
2023/02/25 01:26:52;;;;;;;14.18;5.95;;;;;;;12.61;70.81;96529.34;5072189;28;20402;-79
2023/02/25 01:29:20;;;;;;;24.00;6.85;;;;;;;12.71;69.68;96527.56;5089248;28;20024;-78
2023/02/25 01:31:46;;;;;;;12.93;5.28;;;;;;;12.75;68.74;96515.59;5072112;28;20518;-79
2023/02/25 01:34:16;;;;;;;17.75;5.13;;;;;;;12.83;67.17;96521.13;5072210;28;20028;-78
2023/02/25 01:36:42;;;;;;;18.80;5.30;;;;;;;13.19;64.19;96500.13;5073959;28;20026;-80
2023/02/25 01:39:07;;;;;;;16.17;5.43;;;;;;;13.16;65.11;96508.44;5075866;28;20020;-80
2023/02/25 01:41:35;;;;;;;20.02;5.53;;;;;;;13.32;62.39;96488.13;5075662;28;20028;-79
2023/02/25 01:44:09;;;;;;;21.38;5.80;;;;;;;13.45;62.40;96494.09;5092738;28;20020;-79
2023/02/25 01:46:36;;;;;;;22.75;6.22;;;;;;;13.21;63.84;96490.06;5093741;28;20042;-79
2023/02/25 01:49:05;;;;;;;26.45;6.78;;;;;;;13.02;66.40;96509.63;5075782;28;20028;-79
2023/02/25 01:51:31;;;;;;;18.85;6.05;;;;;;;12.73;68.52;96503.28;5075549;28;20016;-79
2023/02/25 01:53:57;;;;;;;29.05;6.05;;;;;;;12.63;68.40;96515.78;5075431;28;20498;-79
2023/02/25 01:56:24;;;;;;;20.05;5.97;;;;;;;12.68;68.02;96503.69;5075510;28;20023;-78
2023/02/25 01:58:51;;;;;;;15.57;5.43;;;;;;;12.62;68.05;96498.00;5075285;28;20027;-79
2023/02/25 02:01:19;;;;;;;14.77;5.45;;;;;;;12.70;67.13;96500.88;5092635;28;20027;-79
2023/02/25 02:03:45;;;;;;;15.70;6.03;;;;;;;12.67;67.45;96498.47;5092200;28;20036;-79
2023/02/25 02:06:26;;;;;;;19.95;6.10;;;;;;;12.63;67.10;96495.19;5075537;28;20461;-79
2023/02/25 02:08:52;;;;;;;21.50;6.03;;;;;;;12.65;68.40;96492.34;5075428;28;20028;-79
2023/02/25 02:11:18;;;;;;;23.27;6.43;;;;;;;12.57;68.72;96487.69;5075465;28;20035;-79
2023/02/25 02:13:48;;;;;;;18.63;6.28;;;;;;;12.56;67.80;96493.16;5075041;28;20020;-79
2023/02/25 02:16:35;;;;;;;20.27;6.53;;;;;;;12.52;68.36;96498.78;5092179;28;20019;-79
2023/02/25 02:19:27;;;;;;;16.42;6.40;;;;;;;12.39;71.45;96494.63;5091846;28;20031;-79
2023/02/25 02:22:10;;;;;;;16.95;6.47;;;;;;;12.26;73.34;96505.56;5121038;27;20047;-81
2023/02/25 02:24:54;;;;;;;19.20;6.50;;;;;;;12.19;74.45;96519.59;5133976;27;20478;-79
2023/02/25 02:27:50;;;;;;;23.67;6.43;;;;;;;12.04;76.14;96518.22;5122127;27;20041;-79
2023/02/25 02:30:53;;;;;;;19.55;5.22;;;;;;;12.16;70.57;96496.59;5115850;27;20027;-79
2023/02/25 02:33:39;;;;;;;25.40;7.55;;;;;;;12.21;69.87;96486.31;5127618;27;20099;-78
2023/02/25 02:36:11;;;;;;;26.17;5.63;;;;;;;12.46;68.59;96496.63;5148388;27;20137;-78
2023/02/25 02:38:46;;;;;;;22.48;6.88;;;;;;;12.50;67.92;96484.66;5111112;27;20019;-79
2023/02/25 02:41:26;;;;;;;23.85;5.30;;;;;;;12.63;64.85;96452.25;5132514;27;20201;-79
2023/02/25 02:43:57;;;;;;;17.05;5.70;;;;;;;12.69;65.06;96457.09;5132301;27;20110;-79
2023/02/25 02:46:26;;;;;;;21.58;5.70;;;;;;;12.65;64.91;96457.47;5132512;27;20199;-79
2023/02/25 02:49:00;;;;;;;21.17;5.32;;;;;;;12.66;64.76;96454.69;5132248;27;20035;-79
2023/02/25 02:51:31;;;;;;;18.75;5.75;;;;;;;12.55;67.63;96453.94;5115172;27;20117;-79
2023/02/25 02:53:59;;;;;;;19.70;6.87;;;;;;;12.45;69.35;96470.81;5098154;27;20050;-79
2023/02/25 02:56:26;;;;;;;24.23;6.50;;;;;;;12.27;70.07;96467.06;5114965;27;20307;-79
2023/02/25 02:59:04;;;;;;;19.45;6.45;;;;;;;12.14;71.27;96458.34;5097940;27;20038;-79
2023/02/25 03:01:39;;;;;;;21.77;6.75;;;;;;;12.03;71.59;96463.75;5097949;27;20019;-79
2023/02/25 03:04:08;;;;;;;18.67;5.50;;;;;;;11.99;69.69;96458.81;5097927;27;20023;-80
2023/02/25 03:06:37;;;;;;;28.58;8.73;;;;;;;12.18;67.88;96456.25;5114921;27;20426;-79
2023/02/25 03:09:13;;;;;;;24.73;8.35;;;;;;;12.39;66.19;96465.13;5113112;27;20540;-78
2023/02/25 03:11:40;;;;;;;22.23;5.00;;;;;;;12.75;64.14;96472.66;5121905;27;20027;-79
2023/02/25 03:14:07;;;;;;;21.90;5.82;;;;;;;12.98;63.56;96468.78;5114396;27;20478;-79
2023/02/25 03:16:40;;;;;;;14.30;5.82;;;;;;;12.96;64.03;96460.00;5110604;27;20019;-79
2023/02/25 03:19:22;;;;;;;28.77;5.95;;;;;;;12.98;63.58;96454.53;5114490;27;20067;-79
2023/02/25 03:21:53;;;;;;;16.45;5.80;;;;;;;13.01;63.14;96449.72;5110214;27;20083;-79
2023/02/25 03:24:22;;;;;;;23.52;5.15;;;;;;;13.10;63.80;96461.53;5131754;27;20033;-79
2023/02/25 03:26:51;;;;;;;20.45;6.50;;;;;;;12.96;65.04;96456.47;5114259;27;20623;-78
2023/02/25 03:29:20;;;;;;;18.33;5.70;;;;;;;12.82;66.47;96457.72;5107178;27;20023;-79
2023/02/25 03:31:55;;;;;;;20.48;7.45;;;;;;;12.67;68.63;96463.59;5148596;27;20042;-79
2023/02/25 03:34:32;;;;;;;21.75;6.53;;;;;;;12.65;69.83;96478.94;5149218;27;20029;-79
2023/02/25 03:37:01;;;;;;;24.23;6.57;;;;;;;12.71;68.84;96467.66;5113925;27;20027;-79
2023/02/25 03:39:30;;;;;;;15.52;4.88;;;;;;;12.68;69.39;96470.63;5114373;27;20023;-79
2023/02/25 03:42:00;;;;;;;14.38;4.78;;;;;;;12.62;70.27;96461.28;5142006;27;20034;-78
2023/02/25 03:44:31;;;;;;;17.70;5.85;;;;;;;12.58;71.30;96469.75;5122966;27;20023;-78
2023/02/25 03:46:57;;;;;;;9.85;3.97;;;;;;;12.56;72.17;96477.91;5097104;27;20027;-78
2023/02/25 03:49:27;;;;;;;7.70;3.88;;;;;;;12.49;72.39;96480.28;5131447;27;20023;-79
2023/02/25 03:51:54;;;;;;;18.77;6.47;;;;;;;12.57;70.90;96468.91;5148404;27;20047;-79
2023/02/25 03:54:19;;;;;;;18.70;6.55;;;;;;;12.51;72.53;96490.88;5113921;27;20023;-79
2023/02/25 03:56:47;;;;;;;19.75;6.10;;;;;;;12.37;72.22;96488.53;5097908;27;20198;-78
2023/02/25 03:59:14;;;;;;;20.80;7.47;;;;;;;12.29;72.77;96481.16;5113135;27;20031;-79
2023/02/25 04:01:41;;;;;;;15.63;6.65;;;;;;;12.22;72.64;96474.63;5096713;27;20133;-79
2023/02/25 04:04:06;;;;;;;16.05;7.57;;;;;;;12.14;73.50;96479.78;5105090;27;20023;-78
2023/02/25 04:06:32;;;;;;;23.60;8.43;;;;;;;11.99;74.94;96477.56;5096697;27;20031;-79
2023/02/25 04:08:58;;;;;;;25.33;8.43;;;;;;;11.81;76.80;96467.41;5096975;27;20505;-79
2023/02/25 04:11:23;;;;;;;24.05;7.15;;;;;;;11.77;77.14;96465.97;5130715;27;20075;-79
2023/02/25 04:13:49;;;;;;;23.92;8.60;;;;;;;11.60;78.25;96447.75;5105136;27;20055;-80
2023/02/25 04:16:14;;;;;;;21.98;6.85;;;;;;;11.57;79.28;96460.53;5098920;27;20031;-77
2023/02/25 04:18:40;;;;;;;24.23;6.28;;;;;;;11.60;78.39;96454.91;5136265;27;20031;-78
2023/02/25 04:21:06;;;;;;;19.98;5.82;;;;;;;11.71;77.44;96453.09;5122804;27;20056;-79
2023/02/25 04:23:32;;;;;;;20.40;7.00;;;;;;;11.78;76.72;96442.72;5147900;27;20521;-79
2023/02/25 04:25:58;;;;;;;29.35;6.57;;;;;;;11.94;74.53;96445.78;5131906;27;20033;-80
2023/02/25 04:28:23;;;;;;;15.10;5.80;;;;;;;11.95;74.49;96444.81;5147746;27;20027;-79
2023/02/25 04:30:49;;;;;;;20.80;6.30;;;;;;;12.02;74.16;96446.00;5100924;28;20102;-78
2023/02/25 04:33:14;;;;;;;18.15;6.38;;;;;;;12.09;73.78;96447.16;5096433;28;20142;-79
2023/02/25 04:35:40;;;;;;;23.17;7.57;;;;;;;12.19;73.42;96449.91;5104821;28;20031;-78
2023/02/25 04:38:06;;;;;;;20.23;6.95;;;;;;;12.20;73.30;96451.59;5113693;28;20095;-79
2023/02/25 04:40:31;;;;;;;15.75;6.22;;;;;;;12.26;73.39;96443.88;5147987;27;20475;-80
2023/02/25 04:42:57;;;;;;;22.73;6.72;;;;;;;12.31;73.09;96447.00;5134388;27;20471;-79
2023/02/25 04:45:24;;;;;;;21.48;6.28;;;;;;;12.18;74.55;96434.81;5096218;28;20027;-79
2023/02/25 04:47:56;;;;;;;21.85;5.82;;;;;;;12.23;73.01;96428.06;5102903;28;20032;-79
2023/02/25 04:50:22;;;;;;;15.10;6.15;;;;;;;12.36;72.36;96434.06;5096914;28;20035;-80
2023/02/25 04:52:48;;;;;;;22.50;6.30;;;;;;;12.31;72.25;96430.06;5113348;28;20038;-78
2023/02/25 04:55:13;;;;;;;16.80;6.55;;;;;;;12.27;72.85;96431.34;5147027;27;20027;-80
2023/02/25 04:57:41;;;;;;;22.75;6.72;;;;;;;12.25;73.12;96433.28;5112380;28;20114;-79
2023/02/25 05:00:27;;;;;;;17.48;6.45;;;;;;;12.22;72.85;96415.63;5121694;28;20030;-80
2023/02/25 05:02:52;;;;;;;19.30;5.32;;;;;;;12.24;72.43;96413.66;5126314;27;20043;-79
2023/02/25 05:05:18;;;;;;;18.90;6.95;;;;;;;12.16;72.77;96400.09;5113173;28;20031;-79
2023/02/25 05:07:55;;;;;;;17.80;5.97;;;;;;;12.14;72.03;96402.06;5138611;27;20931;-79
2023/02/25 05:10:21;;;;;;;17.52;6.40;;;;;;;12.15;71.95;96403.72;5131513;27;20072;-80
2023/02/25 05:12:46;;;;;;;22.40;6.47;;;;;;;12.10;72.35;96397.94;5137331;27;20481;-80
2023/02/25 05:15:12;;;;;;;12.35;4.20;;;;;;;12.08;71.77;96399.91;5125712;27;20019;-79
2023/02/25 05:17:37;;;;;;;15.15;4.88;;;;;;;12.24;68.95;96392.22;5102796;27;20521;-80
2023/02/25 05:20:10;;;;;;;25.60;5.80;;;;;;;12.35;66.80;96381.41;5100096;27;20534;-78
2023/02/25 05:22:36;;;;;;;16.45;6.00;;;;;;;12.56;65.79;96377.81;5077234;28;20170;-79
2023/02/25 05:25:01;;;;;;;39.05;8.57;;;;;;;12.55;65.45;96374.28;5076310;28;20407;-81
2023/02/25 05:27:27;;;;;;;17.08;5.75;;;;;;;12.55;64.97;96376.13;5076098;28;20056;-80
2023/02/25 05:29:53;;;;;;;23.40;5.93;;;;;;;12.65;64.10;96377.84;5076243;28;20169;-80
2023/02/25 05:32:19;;;;;;;24.65;7.40;;;;;;;12.70;64.24;96380.13;5076141;28;20114;-80
2023/02/25 05:34:44;;;;;;;16.60;5.00;;;;;;;12.75;63.28;96380.56;5075782;28;20474;-79
2023/02/25 05:37:10;;;;;;;161.93;40.97;;;;;;;12.82;63.24;96376.34;5076181;28;20150;-79
2023/02/25 05:39:35;;;;;;;16.35;5.78;;;;;;;12.88;62.71;96381.19;5076021;28;20107;-79
2023/02/25 05:42:01;;;;;;;17.65;7.47;;;;;;;12.87;63.01;96382.16;5093247;28;20027;-81
2023/02/25 05:44:26;;;;;;;12.32;4.78;;;;;;;12.86;62.85;96373.25;5076119;28;20115;-80
2023/02/25 05:46:52;;;;;;;23.02;6.05;;;;;;;12.85;63.06;96390.34;5075546;28;20032;-79
2023/02/25 05:49:17;;;;;;;33.25;7.32;;;;;;;12.91;62.57;96383.59;5075780;28;20156;-80
2023/02/25 05:51:42;;;;;;;13.77;5.25;;;;;;;12.98;62.43;96388.25;5076299;28;20032;-79
2023/02/25 05:54:08;;;;;;;15.57;7.35;;;;;;;13.03;61.88;96380.66;5093416;28;20028;-79
2023/02/25 05:56:33;;;;;;;13.15;6.45;;;;;;;13.07;61.63;96376.66;5093285;28;20027;-79
2023/02/25 05:58:59;;;;;;;24.60;6.30;;;;;;;13.15;61.04;96373.34;5075270;28;20042;-80
2023/02/25 06:01:30;;;;;;;23.58;6.00;;;;;;;13.33;60.17;96394.97;5075948;28;20023;-80
2023/02/25 06:03:57;;;;;;;29.17;8.13;;;;;;;13.37;62.33;96389.19;5076545;28;20115;-80
2023/02/25 06:06:25;;;;;;;34.58;8.63;;;;;;;13.26;64.00;96413.47;5070774;28;20020;-80
2023/02/25 06:08:51;;;;;;;33.42;11.63;;;;;;;13.29;63.94;96401.63;5094302;28;20031;-80
2023/02/25 06:11:20;;;;;;;24.98;8.15;;;;;;;13.02;65.87;96399.56;5076070;28;20031;-80
2023/02/25 06:13:50;;;;;;;26.10;6.78;;;;;;;13.09;66.92;96421.38;5075085;28;20020;-80
2023/02/25 06:16:16;;;;;;;16.15;7.40;;;;;;;13.09;67.79;96427.59;5092043;28;20567;-79
2023/02/25 06:18:42;;;;;;;22.35;8.00;;;;;;;13.04;68.56;96425.28;5092034;28;20051;-81
2023/02/25 06:21:10;;;;;;;24.52;8.30;;;;;;;13.14;69.17;96441.44;5091607;28;20040;-80
2023/02/25 06:23:55;;;;;;;30.00;9.77;;;;;;;13.08;69.51;96431.25;5074642;28;20030;-80
2023/02/25 06:26:20;;;;;;;33.08;11.43;;;;;;;13.19;69.26;96444.59;5091603;28;20028;-79
2023/02/25 06:28:46;;;;;;;31.80;11.82;;;;;;;13.20;68.74;96432.84;5074755;28;20473;-78
2023/02/25 06:31:15;;;;;;;33.67;12.10;;;;;;;13.15;69.04;96435.09;5074683;28;20081;-79
2023/02/25 06:33:40;;;;;;;32.83;11.70;;;;;;;13.02;69.60;96412.97;5082920;28;20484;-82
2023/02/25 06:36:07;;;;;;;33.70;11.77;;;;;;;13.04;69.26;96424.44;5088736;28;20028;-81
2023/02/25 06:38:33;;;;;;;35.65;11.75;;;;;;;13.00;69.53;96423.00;5071833;28;20018;-76
2023/02/25 06:40:59;;;;;;;29.20;9.20;;;;;;;12.98;68.01;96430.38;5089774;28;20070;-77
2023/02/25 06:43:24;;;;;;;28.02;9.48;;;;;;;12.96;67.82;96411.69;5072654;28;20048;-85
2023/02/25 06:45:50;;;;;;;35.20;12.43;;;;;;;13.01;70.61;96408.63;5073968;28;20421;-82
2023/02/25 06:48:15;;;;;;;32.63;11.27;;;;;;;13.30;68.20;96425.66;5074605;28;20089;-73
2023/02/25 06:50:41;;;;;;;44.08;16.23;;;;;;;13.37;65.11;96426.81;5088732;28;20028;-75
2023/02/25 06:53:07;;;;;;;32.08;10.68;;;;;;;13.53;65.62;96416.31;5071780;28;20435;-71
2023/02/25 06:55:33;;;;;;;30.50;8.88;;;;;;;13.64;64.05;96407.28;5071124;28;20107;-75
2023/02/25 06:57:59;;;;;;;27.33;7.47;;;;;;;13.92;61.67;96402.88;5088200;28;20118;-74
2023/02/25 07:00:25;;;;;;;11.38;4.40;;;;;;;14.16;55.84;96388.97;5088254;28;20527;-74
2023/02/25 07:02:50;;;;;;;22.83;7.70;;;;;;;14.27;55.75;96381.59;5089043;28;20024;-76
2023/02/25 07:05:16;;;;;;;37.92;17.10;;;;;;;14.24;56.71;96378.34;5089242;28;20511;-82
2023/02/25 07:07:41;;;;;;;40.50;15.07;;;;;;;14.04;60.10;96399.91;5090956;28;20024;-85
2023/02/25 07:10:09;;;;;;;21.48;6.97;;;;;;;13.92;57.63;96379.53;5072061;28;20458;-77
2023/02/25 07:12:34;;;;;;;28.85;8.93;;;;;;;14.12;56.26;96374.97;5070598;28;20643;-77
2023/02/25 07:15:00;;;;;;;19.90;6.45;;;;;;;14.22;54.59;96356.97;5071199;28;20032;-79
2023/02/25 07:17:25;;;;;;;19.08;6.25;;;;;;;14.19;55.41;96349.19;5071300;28;20024;-80
2023/02/25 07:19:51;;;;;;;21.60;4.82;;;;;;;14.27;54.64;96335.03;5070974;28;20466;-80
2023/02/25 07:22:18;;;;;;;24.40;7.80;;;;;;;14.40;54.38;96344.47;5088251;28;20106;-77
2023/02/25 07:24:44;;;;;;;20.23;5.43;;;;;;;14.38;53.80;96314.19;5072101;28;20388;-86
2023/02/25 07:27:12;;;;;;;15.27;6.25;;;;;;;14.44;53.60;96305.50;5073792;28;20042;-85
2023/02/25 07:29:37;;;;;;;18.83;5.47;;;;;;;14.53;53.05;96280.41;5093676;28;20123;-84
2023/02/25 07:32:04;;;;;;;12.00;4.90;;;;;;;14.55;52.29;96273.00;5073374;28;20109;-87
2023/02/25 07:34:30;;;;;;;27.10;6.65;;;;;;;14.67;52.50;96288.97;5070043;28;20449;-82
2023/02/25 07:36:56;;;;;;;21.08;4.97;;;;;;;14.67;52.27;96264.75;5088264;28;20038;-76
2023/02/25 07:39:21;;;;;;;12.77;4.18;;;;;;;14.71;51.82;96266.13;5070829;28;20053;-77
2023/02/25 07:41:47;;;;;;;15.25;5.10;;;;;;;14.72;51.82;96247.13;5071278;28;20407;-75
2023/02/25 07:44:12;;;;;;;25.73;5.40;;;;;;;14.71;52.01;96255.34;5087226;28;20085;-76
2023/02/25 07:46:38;;;;;;;12.10;4.53;;;;;;;14.77;51.57;96284.34;5070146;28;20054;-75
2023/02/25 07:49:04;;;;;;;23.38;5.68;;;;;;;14.74;51.70;96253.22;5084697;28;20032;-72
2023/02/25 07:51:29;;;;;;;26.20;6.07;;;;;;;14.75;51.35;96254.06;5088245;28;20028;-80
2023/02/25 07:53:56;;;;;;;18.42;5.50;;;;;;;14.80;51.42;96252.59;5090982;28;20115;-81
2023/02/25 07:56:23;;;;;;;11.00;4.93;;;;;;;14.80;51.15;96257.13;5072363;28;20024;-81
2023/02/25 07:58:48;;;;;;;19.67;5.70;;;;;;;14.84;51.01;96261.22;5089507;28;20135;-78
2023/02/25 08:01:26;;;;;;;23.85;4.57;;;;;;;14.86;51.03;96251.97;5070438;28;20478;-79
2023/02/25 08:03:53;;;;;;;18.17;5.53;;;;;;;14.96;50.52;96262.69;5068006;28;20051;-77
2023/02/25 08:06:19;;;;;;;26.08;6.82;;;;;;;15.00;50.86;96261.38;5094525;28;20046;-84
2023/02/25 08:08:45;;;;;;;20.33;5.45;;;;;;;15.04;50.10;96255.53;5067744;28;20459;-82
2023/02/25 08:11:12;;;;;;;19.27;5.28;;;;;;;15.10;49.40;96238.75;5073716;28;20475;-86
2023/02/25 08:13:38;;;;;;;16.70;5.05;;;;;;;15.19;49.48;96242.38;5074256;28;20027;-80
2023/02/25 08:16:05;;;;;;;14.20;4.20;;;;;;;15.35;48.94;96237.09;5071190;28;20035;-80
2023/02/25 08:18:30;;;;;;;16.50;5.28;;;;;;;15.40;48.71;96252.81;5089481;28;20067;-82
2023/02/25 08:20:57;;;;;;;22.88;5.07;;;;;;;15.50;48.54;96238.28;5081544;28;20058;-79
2023/02/25 08:23:23;;;;;;;17.10;4.28;;;;;;;15.63;47.29;96233.31;5104956;28;20027;-79
2023/02/25 08:25:54;;;;;;;12.93;4.47;;;;;;;15.74;47.59;96232.22;5130191;27;20403;-85
2023/02/25 08:28:25;;;;;;;27.25;6.57;;;;;;;15.91;46.84;96235.84;5124684;28;20057;-80
2023/02/25 08:30:52;;;;;;;28.58;7.05;;;;;;;15.95;47.15;96235.38;5093902;28;20024;-81
2023/02/25 08:33:19;;;;;;;18.17;5.07;;;;;;;15.99;46.56;96235.91;5099018;28;20113;-81
2023/02/25 08:35:44;;;;;;;16.25;4.05;;;;;;;16.03;46.24;96238.09;5127377;27;20035;-81
2023/02/25 08:38:11;;;;;;;20.88;4.63;;;;;;;16.06;46.73;96234.22;5120079;28;20042;-81
2023/02/25 08:40:38;;;;;;;15.38;4.40;;;;;;;16.22;46.11;96234.31;5096869;28;20031;-81
2023/02/25 08:43:04;;;;;;;17.55;4.90;;;;;;;16.31;46.09;96229.78;5104075;28;20023;-81
2023/02/25 08:45:30;;;;;;;15.20;3.55;;;;;;;16.44;45.56;96214.84;5117586;28;20595;-79
2023/02/25 08:47:55;;;;;;;15.27;4.10;;;;;;;16.34;45.70;96206.03;5095690;28;20028;-82
2023/02/25 08:50:22;;;;;;;31.00;4.07;;;;;;;16.30;45.53;96202.00;5097413;28;20036;-81
2023/02/25 08:52:49;;;;;;;21.83;6.43;;;;;;;16.37;46.45;96212.94;5105253;27;20055;-78
2023/02/25 08:55:15;;;;;;;20.13;5.30;;;;;;;16.33;46.14;96198.97;5098495;28;20088;-79
2023/02/25 08:57:41;;;;;;;17.88;5.15;;;;;;;16.32;46.48;96183.78;5099212;28;20397;-79
2023/02/25 09:00:08;;;;;;;16.90;6.53;;;;;;;16.46;45.84;96180.41;5118361;27;20024;-74
2023/02/25 09:02:34;;;;;;;29.88;6.13;;;;;;;16.41;45.82;96161.19;5121555;27;20019;-75
2023/02/25 09:05:00;;;;;;;29.50;10.63;;;;;;;16.41;46.27;96171.13;5110642;27;20035;-75
2023/02/25 09:07:25;;;;;;;42.50;13.98;;;;;;;16.55;46.45;96175.94;5122150;27;20450;-78
2023/02/25 09:09:51;;;;;;;25.77;7.03;;;;;;;16.64;45.71;96172.25;5127457;27;20024;-82
2023/02/25 09:12:17;;;;;;;42.22;7.28;;;;;;;16.99;45.54;96179.19;5113014;27;20023;-85
2023/02/25 09:14:42;;;;;;;19.95;6.65;;;;;;;18.94;42.95;96217.28;5121173;27;20046;-74
2023/02/25 09:17:08;;;;;;;22.33;6.25;;;;;;;19.75;40.79;96203.06;5093250;27;20028;-77
2023/02/25 09:19:37;;;;;;;15.77;6.85;;;;;;;19.13;41.22;96174.44;5139361;27;20019;-75
2023/02/25 09:22:03;;;;;;;18.80;5.43;;;;;;;18.69;41.97;96169.66;5114429;27;20122;-75
2023/02/25 09:24:29;;;;;;;18.42;5.30;;;;;;;18.17;42.55;96147.75;5099605;28;20123;-74
2023/02/25 09:26:54;;;;;;;18.17;7.15;;;;;;;18.10;43.18;96141.34;5096865;28;20418;-74
2023/02/25 09:29:20;;;;;;;28.05;5.90;;;;;;;18.10;43.15;96146.75;5131073;27;20023;-74
2023/02/25 09:31:45;;;;;;;18.15;6.57;;;;;;;18.12;42.97;96149.31;5120912;27;20108;-74
2023/02/25 09:34:14;;;;;;;16.13;5.90;;;;;;;18.12;43.25;96136.59;5101832;28;20085;-74
2023/02/25 09:36:39;;;;;;;20.15;6.43;;;;;;;18.26;42.27;96146.69;5117378;27;20024;-74
2023/02/25 09:39:08;;;;;;;18.95;5.40;;;;;;;18.34;42.12;96138.53;5114029;28;20026;-76
2023/02/25 09:41:43;;;;;;;24.08;8.15;;;;;;;19.74;39.90;96162.56;5122170;27;20051;-75
2023/02/25 09:44:09;;;;;;;22.20;5.28;;;;;;;21.21;37.63;96171.38;5123781;27;20031;-75
2023/02/25 09:46:40;;;;;;;13.93;4.85;;;;;;;20.70;37.95;96160.56;5120809;27;20486;-74
2023/02/25 09:49:12;;;;;;;23.38;5.00;;;;;;;19.92;38.91;96115.03;5113636;27;20027;-75
2023/02/25 09:51:46;;;;;;;13.20;4.25;;;;;;;19.58;38.84;96108.47;5105829;27;20027;-74
2023/02/25 09:54:15;;;;;;;21.05;6.20;;;;;;;19.52;39.35;96090.22;5119301;27;20517;-76
2023/02/25 09:56:41;;;;;;;24.55;8.05;;;;;;;20.34;38.45;96098.06;5115474;27;20089;-75
2023/02/25 09:59:13;;;;;;;25.35;5.32;;;;;;;20.54;37.77;96088.28;5118253;27;20027;-75
2023/02/25 10:01:53;;;;;;;19.85;5.47;;;;;;;20.29;37.82;96053.50;5112608;27;20388;-74
2023/02/25 10:04:32;;;;;;;16.80;5.18;;;;;;;20.16;38.45;96050.59;5104290;27;20026;-75
2023/02/25 10:07:15;;;;;;;85.93;9.77;;;;;;;20.09;38.20;96050.50;5138960;27;20032;-74
2023/02/25 10:09:52;;;;;;;17.48;3.95;;;;;;;20.05;38.49;96042.94;5121672;27;20080;-74
2023/02/25 10:12:27;;;;;;;24.00;5.53;;;;;;;20.83;37.53;96065.56;5094791;28;20040;-73
2023/02/25 10:15:11;;;;;;;20.70;5.88;;;;;;;21.71;36.30;96081.38;5118826;27;20019;-74
2023/02/25 10:17:49;;;;;;;18.85;5.32;;;;;;;22.36;34.80;96093.69;5115950;27;20136;-75
2023/02/25 10:20:37;;;;;;;13.73;4.60;;;;;;;22.86;34.53;96076.84;5124556;27;20534;-76
2023/02/25 10:23:03;;;;;;;24.25;6.22;;;;;;;23.06;33.89;96053.19;5126802;27;20034;-74
2023/02/25 10:25:31;;;;;;;14.98;5.05;;;;;;;22.74;34.22;96050.41;5132617;27;20031;-75
2023/02/25 10:28:00;;;;;;;26.20;5.38;;;;;;;21.89;34.32;96027.25;5140776;27;20019;-73
2023/02/25 10:30:45;;;;;;;23.35;4.82;;;;;;;21.62;35.21;96000.91;5117251;27;20030;-74
2023/02/25 10:33:19;;;;;;;23.60;4.90;;;;;;;20.44;36.46;95976.34;5111409;27;20045;-73
2023/02/25 10:35:45;;;;;;;21.83;5.80;;;;;;;20.19;37.15;95968.75;5120399;27;20133;-75
2023/02/25 10:38:11;;;;;;;27.55;4.85;;;;;;;20.19;37.39;95979.59;5133637;27;20019;-74
2023/02/25 10:40:38;;;;;;;19.08;5.70;;;;;;;20.29;37.24;95980.16;5103628;27;20130;-74
2023/02/25 10:43:23;;;;;;;14.93;5.45;;;;;;;20.19;37.45;95966.03;5108749;27;20062;-83
2023/02/25 10:45:55;;;;;;;15.48;4.43;;;;;;;21.70;35.43;96000.75;5115383;27;20027;-79
2023/02/25 10:48:23;;;;;;;20.13;5.80;;;;;;;22.95;33.52;96010.16;5118428;27;20023;-79
2023/02/25 10:51:21;;;;;;;17.85;4.95;;;;;;;23.01;33.39;96014.75;5128708;27;20409;-78
2023/02/25 10:53:56;;;;;;;14.93;4.15;;;;;;;23.38;32.65;96009.72;5062776;27;20127;-78
2023/02/25 10:56:23;;;;;;;18.35;4.90;;;;;;;23.36;32.82;96006.34;5132890;27;20031;-79
2023/02/25 10:59:04;;;;;;;24.08;6.65;;;;;;;24.74;31.35;96023.09;5111843;27;20506;-79
2023/02/25 11:01:38;;;;;;;27.90;5.07;;;;;;;25.21;30.38;96041.75;5114702;27;20030;-78
2023/02/25 11:04:12;;;;;;;15.05;4.47;;;;;;;25.38;29.92;96024.78;5122269;27;20463;-77
2023/02/25 11:06:40;;;;;;;20.85;5.63;;;;;;;25.03;30.30;96030.75;5120811;27;20042;-79
2023/02/25 11:09:29;;;;;;;29.45;6.18;;;;;;;25.47;30.22;96050.81;5117450;27;20046;-80
2023/02/25 11:12:00;;;;;;;15.95;4.38;;;;;;;25.05;29.98;96034.09;5108311;27;20516;-77
2023/02/25 11:14:30;;;;;;;18.92;4.30;;;;;;;24.27;31.24;96022.53;5113680;27;20023;-76
2023/02/25 11:17:08;;;;;;;9.48;4.35;;;;;;;23.70;31.67;96019.78;5130970;27;20042;-76
2023/02/25 11:19:43;;;;;;;21.17;5.20;;;;;;;22.76;33.00;95986.47;5118470;27;20058;-78
2023/02/25 11:22:17;;;;;;;14.25;4.45;;;;;;;22.10;33.56;95980.00;5115747;27;20514;-77
2023/02/25 11:24:45;;;;;;;16.45;5.72;;;;;;;21.72;34.49;95965.97;5103583;27;20110;-78
2023/02/25 11:27:30;;;;;;;23.35;6.55;;;;;;;21.16;35.25;95950.84;5098337;27;20070;-78
2023/02/25 11:30:03;;;;;;;19.38;5.43;;;;;;;20.79;36.09;95965.59;5114819;27;20546;-77
2023/02/25 11:32:28;;;;;;;26.73;7.75;;;;;;;20.57;36.22;95956.63;5113104;27;20023;-77